Time;durP1;ratioP1;P1;durP2;ratioP2;P2;SDS_P1;SDS_P2;PMS_P1;PMS_P2;Temp;Humidity;BMP_temperature;BMP_pressure;BME280_temperature;BME280_humidity;BME280_pressure;Samples;Min_cycle;Max_cycle;Signal;HPM_P1;HPM_P2
2023/07/18 04:08:28;;;;;;;2.67;2.47;;;14.60;99.90;;;;;;4955724;28;20526;-61
2023/07/18 04:10:57;;;;;;;2.20;2.00;;;14.60;99.90;;;;;;4956985;28;20546;-61
2023/07/18 04:13:23;;;;;;;1.57;1.47;;;14.50;99.90;;;;;;4955353;29;20420;-62
2023/07/18 04:15:48;;;;;;;1.40;1.30;;;14.50;99.90;;;;;;4957142;29;20448;-61
2023/07/18 04:18:14;;;;;;;2.47;2.37;;;14.50;99.90;;;;;;4950839;29;20905;-61
2023/07/18 04:20:39;;;;;;;2.77;2.57;;;14.60;99.90;;;;;;4937915;29;20463;-61
2023/07/18 04:23:05;;;;;;;3.03;1.87;;;14.60;99.90;;;;;;4937458;29;20260;-62
2023/07/18 04:25:34;;;;;;;2.27;2.07;;;14.60;99.90;;;;;;4937227;29;20210;-62
2023/07/18 04:28:03;;;;;;;1.50;1.40;;;14.70;99.90;;;;;;4937642;29;20188;-62
2023/07/18 04:30:28;;;;;;;1.73;1.63;;;14.80;99.90;;;;;;4936381;29;20503;-61
2023/07/18 04:32:54;;;;;;;1.87;1.70;;;14.90;99.90;;;;;;4950353;28;20394;-61
2023/07/18 04:35:20;;;;;;;1.33;1.23;;;15.10;99.90;;;;;;4955144;29;20197;-61
2023/07/18 04:37:45;;;;;;;2.37;1.90;;;15.40;99.90;;;;;;4956562;28;20172;-61
2023/07/18 04:40:11;;;;;;;1.63;1.53;;;15.70;99.90;;;;;;4956758;28;20268;-61
2023/07/18 04:42:37;;;;;;;1.97;1.57;;;16.00;99.90;;;;;;4956607;29;20535;-62
2023/07/18 04:45:06;;;;;;;2.97;2.30;;;16.20;99.90;;;;;;4956051;29;20209;-62
2023/07/18 04:47:31;;;;;;;2.13;1.50;;;16.40;99.90;;;;;;4956246;28;20186;-62
2023/07/18 04:49:57;;;;;;;1.60;1.50;;;16.60;99.90;;;;;;4956086;29;20462;-61
2023/07/18 04:52:23;;;;;;;2.17;1.63;;;16.60;99.90;;;;;;4956342;29;20915;-62
2023/07/18 04:54:48;;;;;;;2.40;2.20;;;16.60;99.90;;;;;;4955959;28;20197;-61
2023/07/18 04:57:14;;;;;;;10.00;1.97;;;16.60;99.90;;;;;;4946239;29;20536;-61
2023/07/18 04:59:41;;;;;;;3.27;2.23;;;16.60;99.90;;;;;;4937065;29;20599;-63
2023/07/18 05:02:07;;;;;;;1.80;1.70;;;16.60;99.90;;;;;;4937067;29;20177;-62
2023/07/18 05:04:32;;;;;;;1.87;1.67;;;16.60;99.90;;;;;;4936580;29;20951;-62
2023/07/18 05:06:58;;;;;;;1.43;1.33;;;16.80;99.90;;;;;;4936722;29;20295;-65
2023/07/18 05:09:27;;;;;;;2.20;1.47;;;16.80;99.90;;;;;;4936749;29;20169;-62
2023/07/18 05:11:53;;;;;;;1.33;1.30;;;16.80;99.90;;;;;;4936629;29;20931;-62
2023/07/18 05:14:19;;;;;;;2.13;1.77;;;16.90;99.90;;;;;;4939409;29;20466;-60
2023/07/18 05:16:44;;;;;;;3.50;1.57;;;17.00;99.90;;;;;;4970100;28;20188;-60
2023/07/18 05:19:10;;;;;;;2.33;2.13;;;17.10;99.90;;;;;;4957251;28;20182;-60
2023/07/18 05:21:35;;;;;;;4.70;3.40;;;17.20;99.90;;;;;;4936437;29;20182;-61
2023/07/18 05:24:01;;;;;;;1.83;1.30;;;17.40;99.90;;;;;;4936468;29;20633;-59
2023/07/18 05:26:27;;;;;;;2.83;2.30;;;17.60;99.90;;;;;;4936637;29;20191;-59
2023/07/18 05:28:52;;;;;;;2.13;1.93;;;17.80;99.90;;;;;;4936477;29;20183;-62
2023/07/18 05:31:18;;;;;;;1.93;1.73;;;17.80;99.90;;;;;;4936931;29;20200;-61
2023/07/18 05:33:43;;;;;;;1.43;1.33;;;17.90;99.90;;;;;;4936079;29;20536;-59
2023/07/18 05:36:09;;;;;;;1.87;1.10;;;17.90;99.90;;;;;;4935649;29;20193;-60
2023/07/18 05:38:34;;;;;;;1.80;1.27;;;18.00;99.90;;;;;;4936392;29;20181;-62
2023/07/18 05:41:00;;;;;;;1.40;1.40;;;17.90;99.90;;;;;;4919612;29;20179;-62
2023/07/18 05:43:26;;;;;;;1.90;0.90;;;18.00;99.90;;;;;;4936029;29;20660;-61
2023/07/18 05:45:51;;;;;;;1.53;1.10;;;18.10;99.90;;;;;;4941651;29;20203;-60
2023/07/18 05:48:17;;;;;;;1.57;1.47;;;18.10;99.90;;;;;;4953633;29;20646;-62
2023/07/18 05:50:42;;;;;;;1.67;1.57;;;18.20;99.90;;;;;;4936364;29;20204;-61
2023/07/18 05:53:11;;;;;;;1.87;1.60;;;18.20;99.90;;;;;;4936029;29;20245;-61
2023/07/18 05:55:36;;;;;;;1.30;1.20;;;18.30;99.90;;;;;;4950516;29;20202;-61
2023/07/18 05:58:02;;;;;;;2.07;1.37;;;18.50;99.90;;;;;;4955394;29;20468;-60
2023/07/18 06:00:27;;;;;;;1.13;1.13;;;18.60;99.90;;;;;;4955262;29;20185;-62
2023/07/18 06:02:53;;;;;;;0.97;0.97;;;18.70;99.90;;;;;;4950440;29;20225;-62
2023/07/18 06:05:19;;;;;;;1.63;1.40;;;18.90;99.90;;;;;;4954803;28;20559;-63
2023/07/18 06:07:44;;;;;;;1.50;1.10;;;19.10;99.90;;;;;;4954677;29;20269;-63
2023/07/18 06:10:11;;;;;;;1.33;1.23;;;19.30;99.90;;;;;;4947460;28;20621;-63
2023/07/18 06:12:37;;;;;;;1.93;1.13;;;19.50;99.90;;;;;;4965172;28;20542;-63
2023/07/18 06:15:03;;;;;;;2.70;1.60;;;19.60;99.90;;;;;;4966881;28;20430;-63
2023/07/18 06:17:35;;;;;;;1.43;1.23;;;19.50;99.90;;;;;;4939641;29;20730;-62
2023/07/18 06:20:02;;;;;;;1.53;1.43;;;19.40;99.90;;;;;;4962491;28;20406;-62
2023/07/18 06:22:28;;;;;;;1.20;1.20;;;19.40;99.90;;;;;;4974389;28;20390;-63
2023/07/18 06:24:53;;;;;;;1.70;1.40;;;19.50;99.90;;;;;;4969874;28;20454;-63
2023/07/18 06:27:19;;;;;;;1.40;1.30;;;19.50;99.90;;;;;;4968397;28;20177;-62
2023/07/18 06:29:46;;;;;;;1.63;1.30;;;19.60;99.90;;;;;;4954309;29;20243;-61
2023/07/18 06:32:11;;;;;;;1.90;1.20;;;19.80;99.90;;;;;;4953826;29;20216;-60
2023/07/18 06:34:40;;;;;;;1.60;1.50;;;19.90;99.90;;;;;;4953110;29;20418;-60
2023/07/18 06:37:08;;;;;;;1.07;1.07;;;20.00;99.90;;;;;;4954935;29;20234;-59
2023/07/18 06:39:35;;;;;;;2.27;1.47;;;19.90;99.90;;;;;;4952669;28;20395;-59
2023/07/18 06:42:00;;;;;;;1.77;1.50;;;20.10;99.90;;;;;;4944667;29;20807;-60
2023/07/18 06:44:26;;;;;;;1.53;1.43;;;20.20;99.90;;;;;;4936707;29;20411;-60
2023/07/18 06:46:52;;;;;;;1.80;1.70;;;20.30;99.90;;;;;;4939694;29;20185;-59
2023/07/18 06:49:20;;;;;;;1.40;1.30;;;20.50;99.90;;;;;;4927053;29;20652;-60
2023/07/18 06:51:45;;;;;;;1.87;1.73;;;20.50;99.90;;;;;;4922515;29;20519;-60
2023/07/18 06:54:11;;;;;;;1.30;1.20;;;20.50;99.90;;;;;;4938708;29;20852;-60
2023/07/18 06:56:39;;;;;;;0.97;0.97;;;20.50;99.80;;;;;;4939043;29;20624;-61
2023/07/18 06:59:04;;;;;;;1.60;1.50;;;20.60;99.20;;;;;;4954410;29;20271;-60
2023/07/18 07:01:32;;;;;;;1.60;1.50;;;20.70;99.40;;;;;;4955028;29;20958;-61
2023/07/18 07:03:58;;;;;;;0.80;0.80;;;20.90;99.60;;;;;;4925484;29;20247;-60
2023/07/18 07:06:23;;;;;;;0.80;0.80;;;21.20;97.30;;;;;;4958007;28;20872;-61
2023/07/18 07:08:50;;;;;;;1.50;1.40;;;21.50;96.70;;;;;;4958176;28;20246;-61
2023/07/18 07:11:15;;;;;;;1.40;1.30;;;21.70;96.80;;;;;;4957978;28;20229;-61
2023/07/18 07:13:41;;;;;;;1.33;1.23;;;21.90;95.90;;;;;;4957377;29;20387;-62
2023/07/18 07:16:07;;;;;;;1.60;1.50;;;22.10;95.40;;;;;;4956291;29;20245;-60
2023/07/18 07:18:32;;;;;;;2.10;1.27;;;22.30;95.60;;;;;;4940951;29;20285;-61
2023/07/18 07:20:59;;;;;;;1.27;1.17;;;22.50;94.50;;;;;;4924976;29;20642;-61
2023/07/18 07:23:25;;;;;;;1.13;1.13;;;22.50;93.80;;;;;;4957794;29;20240;-61
2023/07/18 07:25:56;;;;;;;1.20;1.10;;;22.60;93.60;;;;;;4957869;28;20438;-61
2023/07/18 07:28:25;;;;;;;2.47;1.60;;;22.50;93.30;;;;;;4957585;29;20186;-60
2023/07/18 07:30:51;;;;;;;1.03;0.90;;;22.60;93.00;;;;;;4956713;29;20434;-60
2023/07/18 07:33:17;;;;;;;1.33;1.10;;;22.70;91.30;;;;;;4957111;29;20405;-62
2023/07/18 07:35:43;;;;;;;1.20;1.20;;;23.00;91.60;;;;;;4957509;28;20488;-61
2023/07/18 07:38:09;;;;;;;1.07;1.00;;;23.50;91.10;;;;;;4957462;29;20173;-61
2023/07/18 07:40:38;;;;;;;1.10;1.10;;;24.20;90.50;;;;;;4944192;29;20795;-61
2023/07/18 07:43:04;;;;;;;1.50;1.40;;;25.00;86.40;;;;;;4954354;29;20403;-61
2023/07/18 07:45:29;;;;;;;1.20;0.90;;;25.80;81.60;;;;;;4953076;28;20786;-61
2023/07/18 07:47:55;;;;;;;1.00;1.00;;;26.70;79.30;;;;;;4957269;29;20185;-61
2023/07/18 07:50:21;;;;;;;1.30;1.17;;;27.70;77.10;;;;;;4957359;29;20204;-61
2023/07/18 07:52:46;;;;;;;1.70;1.60;;;28.40;71.30;;;;;;4963575;28;20428;-60
2023/07/18 07:55:13;;;;;;;1.40;1.30;;;29.20;68.80;;;;;;4939938;29;20372;-61
2023/07/18 07:57:39;;;;;;;1.10;1.07;;;30.10;65.50;;;;;;4963745;28;20179;-60
2023/07/18 08:00:11;;;;;;;1.17;1.17;;;31.00;63.80;;;;;;4954280;28;20746;-61
2023/07/18 08:02:37;;;;;;;1.40;1.30;;;32.00;59.80;;;;;;4948433;29;20399;-60
2023/07/18 08:05:03;;;;;;;1.73;1.63;;;32.60;58.50;;;;;;4956688;29;20524;-59
2023/07/18 08:07:29;;;;;;;1.23;1.20;;;33.10;56.90;;;;;;4956859;29;20698;-61
2023/07/18 08:10:00;;;;;;;1.10;1.10;;;33.60;56.40;;;;;;4957108;28;20510;-59
2023/07/18 08:12:26;;;;;;;1.60;1.50;;;34.10;55.50;;;;;;4956939;28;20173;-60
2023/07/18 08:14:55;;;;;;;1.60;1.50;;;34.60;55.30;;;;;;4955981;28;20440;-60
2023/07/18 08:17:20;;;;;;;2.03;1.60;;;34.60;54.60;;;;;;4957169;29;20408;-60
2023/07/18 08:19:46;;;;;;;1.40;1.30;;;35.00;53.60;;;;;;4956742;29;20910;-60
2023/07/18 08:22:12;;;;;;;1.47;1.37;;;35.30;53.00;;;;;;4956348;29;20539;-61
2023/07/18 08:24:39;;;;;;;1.50;1.40;;;35.70;52.00;;;;;;4956056;29;20650;-61
2023/07/18 08:27:05;;;;;;;1.30;1.20;;;36.20;51.40;;;;;;4956282;29;20555;-60
2023/07/18 08:29:34;;;;;;;2.40;1.50;;;36.50;51.40;;;;;;4955690;29;20435;-61
2023/07/18 08:32:04;;;;;;;1.07;1.07;;;36.50;50.30;;;;;;4956243;29;20444;-61
2023/07/18 08:34:29;;;;;;;1.60;1.50;;;36.50;50.70;;;;;;4955666;28;20836;-61
2023/07/18 08:36:55;;;;;;;1.60;1.50;;;36.60;50.50;;;;;;4956381;29;20508;-61
2023/07/18 08:39:20;;;;;;;1.47;1.37;;;36.80;49.80;;;;;;4939185;28;20248;-61
2023/07/18 08:41:51;;;;;;;1.50;1.40;;;36.80;48.40;;;;;;4956263;29;20623;-62
2023/07/18 08:44:17;;;;;;;1.47;1.37;;;36.30;48.30;;;;;;4950538;29;20624;-61
2023/07/18 08:46:46;;;;;;;1.17;1.17;;;36.30;48.50;;;;;;4936816;29;20445;-61
2023/07/18 08:49:16;;;;;;;1.07;1.07;;;36.60;48.80;;;;;;4936787;29;20805;-61
2023/07/18 08:51:42;;;;;;;1.50;1.40;;;36.90;47.90;;;;;;4936724;29;20467;-61
2023/07/18 08:54:11;;;;;;;1.70;1.60;;;37.10;47.60;;;;;;4936302;29;20745;-61
2023/07/18 08:56:40;;;;;;;1.60;1.50;;;37.40;46.10;;;;;;4936662;29;20424;-61
2023/07/18 08:59:06;;;;;;;1.10;1.10;;;37.80;46.30;;;;;;4949340;28;20438;-61
2023/07/18 09:01:32;;;;;;;1.63;1.53;;;38.00;46.30;;;;;;4955928;29;20467;-61
2023/07/18 09:03:57;;;;;;;1.53;1.47;;;37.40;46.80;;;;;;4955426;29;20974;-61
2023/07/18 09:06:24;;;;;;;1.20;1.20;;;37.70;47.30;;;;;;4955676;28;20205;-60
2023/07/18 09:08:50;;;;;;;1.77;1.53;;;37.60;46.40;;;;;;4950507;28;20189;-61
2023/07/18 09:11:19;;;;;;;1.00;1.00;;;37.50;47.00;;;;;;4940230;29;20923;-60
2023/07/18 09:13:46;;;;;;;1.40;1.30;;;37.30;47.00;;;;;;4935945;29;20447;-61
2023/07/18 09:16:14;;;;;;;1.30;1.30;;;37.20;46.80;;;;;;4937216;29;20504;-61
2023/07/18 09:18:55;;;;;;;1.53;1.43;;;37.40;46.40;;;;;;4922463;29;20465;-62
2023/07/18 09:21:22;;;;;;;1.77;1.67;;;37.70;46.50;;;;;;4935878;29;20524;-62
2023/07/18 09:23:49;;;;;;;1.80;1.70;;;38.00;46.30;;;;;;4920656;29;20453;-60
2023/07/18 09:26:17;;;;;;;1.83;1.70;;;38.40;45.70;;;;;;4935632;29;20441;-63
2023/07/18 09:28:43;;;;;;;1.60;1.50;;;38.70;45.90;;;;;;4936189;29;20421;-61
2023/07/18 09:31:19;;;;;;;1.80;1.70;;;38.80;46.40;;;;;;4950383;29;20424;-61
2023/07/18 09:33:48;;;;;;;2.00;1.90;;;38.70;45.70;;;;;;4955430;29;20184;-61
2023/07/18 09:36:22;;;;;;;1.67;1.57;;;38.30;46.10;;;;;;4955650;28;20429;-61
2023/07/18 09:38:48;;;;;;;1.00;1.00;;;38.30;45.70;;;;;;4946188;29;20480;-61
2023/07/18 09:41:21;;;;;;;2.07;1.60;;;38.20;46.10;;;;;;4955530;29;20499;-61
2023/07/18 09:43:47;;;;;;;1.77;1.67;;;38.30;45.60;;;;;;4937627;29;20438;-60
2023/07/18 09:46:17;;;;;;;1.40;1.30;;;38.70;45.80;;;;;;4938570;28;20445;-61
2023/07/18 09:48:45;;;;;;;1.50;1.40;;;38.60;46.20;;;;;;4952827;29;20968;-61
2023/07/18 09:51:15;;;;;;;1.67;1.57;;;38.20;45.50;;;;;;4936351;29;20429;-61
2023/07/18 09:53:45;;;;;;;1.67;1.57;;;38.50;45.60;;;;;;4936360;29;20441;-60
2023/07/18 09:56:14;;;;;;;1.30;1.30;;;38.80;45.70;;;;;;4937236;29;20553;-61
2023/07/18 09:58:42;;;;;;;1.30;1.30;;;39.00;46.30;;;;;;4946885;29;20435;-61
2023/07/18 10:01:20;;;;;;;2.00;1.90;;;39.00;46.90;;;;;;4943736;29;20815;-61
2023/07/18 10:03:52;;;;;;;1.60;1.50;;;38.50;45.80;;;;;;4936047;29;20429;-61
2023/07/18 10:06:19;;;;;;;1.70;1.60;;;37.70;46.70;;;;;;4935733;29;20939;-60
2023/07/18 10:08:45;;;;;;;1.53;1.43;;;37.10;47.80;;;;;;4942957;29;20435;-60
2023/07/18 10:11:11;;;;;;;1.57;1.47;;;36.60;47.30;;;;;;4955203;29;20571;-60
2023/07/18 10:13:42;;;;;;;1.70;1.60;;;36.20;48.30;;;;;;4955027;29;21200;-60
2023/07/18 10:16:13;;;;;;;1.80;1.70;;;35.60;49.70;;;;;;4945606;28;20253;-59
2023/07/18 10:18:49;;;;;;;1.70;1.60;;;35.10;50.20;;;;;;4941672;29;20424;-60
2023/07/18 10:21:35;;;;;;;1.83;1.73;;;34.50;50.80;;;;;;4938967;29;20978;-60
2023/07/18 10:24:21;;;;;;;1.40;1.30;;;33.80;51.40;;;;;;4957757;28;20402;-60
2023/07/18 10:26:56;;;;;;;1.40;1.30;;;33.10;52.10;;;;;;4959091;29;20423;-59
2023/07/18 10:29:22;;;;;;;1.73;1.63;;;32.40;52.10;;;;;;4949916;29;20519;-61
2023/07/18 10:31:48;;;;;;;1.33;1.23;;;31.70;54.20;;;;;;4941497;29;20592;-60
2023/07/18 10:34:16;;;;;;;1.43;1.30;;;31.10;55.20;;;;;;4939389;29;20177;-59
2023/07/18 10:36:57;;;;;;;1.50;1.40;;;30.40;55.10;;;;;;4939664;29;20886;-59
2023/07/18 10:39:40;;;;;;;1.70;1.60;;;30.00;55.30;;;;;;4939796;29;20796;-61
2023/07/18 10:42:28;;;;;;;1.47;1.37;;;29.50;56.70;;;;;;4952458;29;20832;-61
2023/07/18 10:44:58;;;;;;;1.60;1.33;;;29.10;57.00;;;;;;4947705;29;20411;-60
2023/07/18 10:47:25;;;;;;;1.97;1.77;;;28.40;57.90;;;;;;4955617;28;20450;-60
2023/07/18 10:49:51;;;;;;;1.70;1.37;;;27.80;59.60;;;;;;4958631;29;20449;-60
2023/07/18 10:52:18;;;;;;;1.30;1.17;;;27.40;60.80;;;;;;4958584;29;20421;-60
2023/07/18 10:54:50;;;;;;;2.73;1.63;;;27.40;62.90;;;;;;4957730;28;20434;-60
2023/07/18 10:57:16;;;;;;;1.90;1.40;;;27.70;62.60;;;;;;4958411;28;20371;-61
2023/07/18 10:59:45;;;;;;;3.03;1.30;;;28.00;63.10;;;;;;4957555;29;20481;-61
2023/07/18 11:02:11;;;;;;;1.23;1.13;;;28.30;61.40;;;;;;4957309;28;20399;-60
2023/07/18 11:04:37;;;;;;;1.63;1.53;;;28.50;60.50;;;;;;4958028;29;20418;-60
2023/07/18 11:07:03;;;;;;;1.90;1.80;;;28.80;60.00;;;;;;4958002;29;20428;-60
2023/07/18 11:09:29;;;;;;;1.87;1.73;;;29.40;60.60;;;;;;4957928;28;20174;-61
2023/07/18 11:11:54;;;;;;;1.60;1.50;;;29.70;60.10;;;;;;4950451;29;20584;-61
2023/07/18 11:14:20;;;;;;;1.50;1.40;;;30.00;60.90;;;;;;4946211;29;20190;-61
2023/07/18 11:16:47;;;;;;;1.80;1.70;;;30.20;60.20;;;;;;4947442;28;20430;-61
2023/07/18 11:19:13;;;;;;;2.20;1.70;;;30.30;59.30;;;;;;4941416;29;20418;-62
2023/07/18 11:21:43;;;;;;;1.50;1.40;;;30.20;60.20;;;;;;4948919;29;20456;-62
2023/07/18 11:24:08;;;;;;;1.57;1.40;;;30.20;59.20;;;;;;4955988;28;20424;-62
2023/07/18 11:26:34;;;;;;;1.77;1.67;;;30.00;58.80;;;;;;4948546;29;20414;-62
2023/07/18 11:29:00;;;;;;;1.40;1.30;;;29.80;59.30;;;;;;4939025;29;20181;-62
2023/07/18 11:31:31;;;;;;;1.50;1.40;;;29.50;59.30;;;;;;4942180;29;20181;-62
2023/07/18 11:33:58;;;;;;;1.60;1.50;;;29.10;59.80;;;;;;4937376;29;20177;-61
2023/07/18 11:36:32;;;;;;;2.20;2.10;;;28.90;58.90;;;;;;4931076;29;20846;-61
2023/07/18 11:38:59;;;;;;;1.53;1.43;;;28.60;60.10;;;;;;4957771;29;20881;-61
2023/07/18 11:41:35;;;;;;;2.13;1.63;;;28.30;61.80;;;;;;4947155;29;20488;-62
2023/07/18 11:44:08;;;;;;;2.30;2.10;;;28.00;61.60;;;;;;4941177;29;20428;-62
2023/07/18 11:46:42;;;;;;;1.80;1.57;;;27.80;62.10;;;;;;4939573;29;20758;-61
2023/07/18 11:49:12;;;;;;;1.60;1.50;;;27.60;63.40;;;;;;4924737;29;20411;-60
2023/07/18 11:51:39;;;;;;;1.73;1.63;;;27.30;64.90;;;;;;4938606;29;20431;-63
2023/07/18 11:54:05;;;;;;;1.90;1.80;;;27.00;65.30;;;;;;4941791;28;20623;-63
2023/07/18 11:56:31;;;;;;;1.70;1.60;;;26.80;65.80;;;;;;4946945;29;20480;-62
2023/07/18 11:58:57;;;;;;;1.60;1.50;;;26.70;67.20;;;;;;4956625;29;20233;-63
2023/07/18 12:01:22;;;;;;;1.20;1.20;;;26.70;67.00;;;;;;4956850;28;20465;-63
2023/07/18 12:03:51;;;;;;;1.80;1.70;;;26.60;67.00;;;;;;4955161;29;20182;-63
2023/07/18 12:06:21;;;;;;;1.63;1.53;;;26.70;66.80;;;;;;4939905;28;20201;-64
2023/07/18 12:08:49;;;;;;;1.90;1.40;;;26.80;67.30;;;;;;4938026;29;20406;-63
2023/07/18 12:11:15;;;;;;;1.37;1.27;;;26.80;66.50;;;;;;4950433;29;20428;-64
2023/07/18 12:13:41;;;;;;;1.30;1.20;;;26.90;66.30;;;;;;4956067;29;20420;-63
2023/07/18 12:16:07;;;;;;;1.87;1.77;;;27.00;67.10;;;;;;4947000;28;20806;-63
2023/07/18 12:18:32;;;;;;;1.37;1.33;;;27.20;68.30;;;;;;4941714;29;20188;-63
2023/07/18 12:20:58;;;;;;;1.83;1.73;;;27.30;65.60;;;;;;4950401;29;20222;-63
2023/07/18 12:23:25;;;;;;;2.07;1.90;;;27.40;67.70;;;;;;4956295;29;20202;-63
2023/07/18 12:25:50;;;;;;;2.00;1.90;;;27.50;67.20;;;;;;4929166;29;20279;-64
2023/07/18 12:28:19;;;;;;;1.60;1.50;;;27.50;66.90;;;;;;4940148;28;21040;-64
2023/07/18 12:30:45;;;;;;;1.70;1.50;;;27.60;66.90;;;;;;4937577;29;20216;-64
2023/07/18 12:33:10;;;;;;;1.20;1.17;;;27.70;66.10;;;;;;4937801;29;21031;-64
2023/07/18 12:35:36;;;;;;;2.40;1.83;;;27.80;66.30;;;;;;4936843;29;20340;-64
2023/07/18 12:38:06;;;;;;;1.70;1.60;;;28.00;66.30;;;;;;4937184;29;20205;-64
2023/07/18 12:40:32;;;;;;;1.50;1.27;;;28.00;66.00;;;;;;4942458;28;20277;-64
2023/07/18 12:42:58;;;;;;;2.37;2.17;;;28.10;65.50;;;;;;4942023;29;20941;-64
2023/07/18 12:45:24;;;;;;;1.43;1.30;;;28.20;66.70;;;;;;4955271;28;20195;-72
2023/07/18 12:47:50;;;;;;;2.00;1.90;;;28.30;65.60;;;;;;4955844;29;20201;-65
2023/07/18 12:50:15;;;;;;;1.77;1.67;;;28.40;65.00;;;;;;4946900;29;20435;-66
2023/07/18 12:52:41;;;;;;;1.80;1.70;;;28.40;65.80;;;;;;4938653;29;20597;-67
2023/07/18 12:55:10;;;;;;;2.00;1.40;;;28.40;66.10;;;;;;4950520;29;20243;-67
2023/07/18 12:57:35;;;;;;;2.10;1.90;;;28.50;66.70;;;;;;4922637;29;20211;-66
2023/07/18 13:00:01;;;;;;;1.90;1.80;;;28.60;65.80;;;;;;4937073;29;20396;-67
2023/07/18 13:02:27;;;;;;;2.17;1.97;;;28.60;66.70;;;;;;4937065;29;20233;-66
2023/07/18 13:04:53;;;;;;;1.97;1.87;;;28.60;66.10;;;;;;4955150;28;20587;-65
2023/07/18 13:07:19;;;;;;;2.00;1.80;;;28.60;66.00;;;;;;4956191;29;20424;-66
2023/07/18 13:09:45;;;;;;;2.03;1.93;;;28.60;66.40;;;;;;4956132;28;20568;-66
2023/07/18 13:12:10;;;;;;;1.77;1.67;;;28.60;66.30;;;;;;4948396;29;20655;-67
2023/07/18 13:14:36;;;;;;;1.60;1.50;;;28.70;65.10;;;;;;4936208;29;20924;-65
2023/07/18 13:17:05;;;;;;;2.60;1.97;;;28.80;65.60;;;;;;4936916;29;20392;-65
2023/07/18 13:19:30;;;;;;;1.70;1.60;;;28.90;65.50;;;;;;4936778;29;20670;-65
2023/07/18 13:21:56;;;;;;;2.50;2.00;;;28.90;64.60;;;;;;4936283;29;20428;-65
2023/07/18 13:24:22;;;;;;;1.80;1.70;;;28.90;65.70;;;;;;4920304;29;20205;-62
2023/07/18 13:26:48;;;;;;;2.40;2.20;;;28.80;66.00;;;;;;4940073;29;20536;-64
2023/07/18 13:29:16;;;;;;;2.17;2.07;;;28.80;65.70;;;;;;4942261;29;20240;-65
2023/07/18 13:31:42;;;;;;;1.83;1.70;;;28.80;67.20;;;;;;4936586;28;20399;-64
2023/07/18 13:34:09;;;;;;;2.03;1.83;;;28.90;66.00;;;;;;4945678;29;20437;-64
2023/07/18 13:36:35;;;;;;;1.40;1.30;;;29.00;65.90;;;;;;4939313;29;20536;-61
2023/07/18 13:39:03;;;;;;;1.90;1.80;;;29.10;64.30;;;;;;4936673;29;20739;-61
2023/07/18 13:41:29;;;;;;;2.53;1.40;;;29.20;65.00;;;;;;4935833;29;20431;-61
2023/07/18 13:43:54;;;;;;;1.97;1.87;;;29.20;64.70;;;;;;4948928;29;20885;-62
2023/07/18 13:46:20;;;;;;;4.87;1.33;;;29.20;63.60;;;;;;4955195;28;20185;-61
2023/07/18 13:48:46;;;;;;;1.80;1.70;;;29.20;63.30;;;;;;4950129;29;20217;-62
2023/07/18 13:51:11;;;;;;;1.60;1.50;;;29.10;63.60;;;;;;4936487;29;20644;-61
2023/07/18 13:53:37;;;;;;;2.20;2.00;;;29.30;65.20;;;;;;4944425;29;20264;-60
2023/07/18 13:56:03;;;;;;;3.23;2.00;;;29.30;65.10;;;;;;4943874;29;20256;-62
2023/07/18 13:58:29;;;;;;;3.40;1.70;;;29.30;65.10;;;;;;4936644;29;20380;-63
2023/07/18 14:00:55;;;;;;;1.70;1.60;;;29.30;65.60;;;;;;4936329;29;20231;-61
2023/07/18 14:03:21;;;;;;;2.87;2.23;;;29.30;65.80;;;;;;4938934;29;20636;-62
2023/07/18 14:05:47;;;;;;;2.30;2.10;;;29.40;65.80;;;;;;4936168;29;20452;-59
2023/07/18 14:08:12;;;;;;;2.33;2.13;;;29.40;65.70;;;;;;4942487;29;20660;-60
2023/07/18 14:10:38;;;;;;;2.23;1.87;;;29.30;66.10;;;;;;4954474;29;20591;-61
2023/07/18 14:13:05;;;;;;;2.80;2.60;;;29.20;66.20;;;;;;4955315;29;20196;-61
2023/07/18 14:15:30;;;;;;;5.80;5.20;;;29.20;65.90;;;;;;4935900;29;20201;-61
2023/07/18 14:17:56;;;;;;;2.53;2.40;;;29.10;65.80;;;;;;4937675;29;20409;-61
2023/07/18 14:20:22;;;;;;;4.27;2.13;;;29.10;66.10;;;;;;4955178;28;20205;-62
2023/07/18 14:22:48;;;;;;;4.60;3.20;;;29.10;66.80;;;;;;4955182;28;20284;-60
2023/07/18 14:25:15;;;;;;;2.43;2.23;;;29.10;67.30;;;;;;4945847;29;20203;-61
2023/07/18 14:27:40;;;;;;;2.80;2.20;;;29.20;66.60;;;;;;4955083;29;20412;-60
2023/07/18 14:30:07;;;;;;;2.70;2.50;;;29.30;66.50;;;;;;4954905;28;20391;-61
2023/07/18 14:32:32;;;;;;;2.80;2.30;;;29.40;66.50;;;;;;4943414;29;20178;-61
2023/07/18 14:34:59;;;;;;;2.70;2.50;;;29.40;66.20;;;;;;4935417;29;20436;-60
2023/07/18 14:37:25;;;;;;;2.63;2.43;;;29.40;66.20;;;;;;4944846;28;20185;-61
2023/07/18 14:39:59;;;;;;;2.53;2.20;;;29.40;67.20;;;;;;4954511;29;20840;-60
2023/07/18 14:42:25;;;;;;;1.67;1.53;;;29.30;67.40;;;;;;4954120;28;20184;-61
2023/07/18 14:44:53;;;;;;;2.30;2.20;;;29.30;67.50;;;;;;4954352;28;20411;-61
2023/07/18 14:47:19;;;;;;;5.10;4.10;;;29.40;67.50;;;;;;4953762;29;20173;-61
2023/07/18 14:49:44;;;;;;;3.50;3.20;;;29.40;67.20;;;;;;4954137;29;20424;-61
2023/07/18 14:52:10;;;;;;;2.43;2.17;;;29.50;68.80;;;;;;4953594;29;20228;-62
2023/07/18 14:54:36;;;;;;;3.40;2.20;;;29.60;67.50;;;;;;4949238;29;20224;-61
2023/07/18 14:57:02;;;;;;;1.80;1.70;;;29.60;65.40;;;;;;4954790;29;20181;-62
2023/07/18 14:59:27;;;;;;;2.27;2.07;;;29.60;65.60;;;;;;4941150;29;20608;-60
2023/07/18 15:01:53;;;;;;;2.73;2.17;;;29.50;65.80;;;;;;4945260;29;20209;-60
2023/07/18 15:04:19;;;;;;;2.53;2.33;;;29.40;65.70;;;;;;4952569;29;20177;-61
2023/07/18 15:06:44;;;;;;;4.77;4.37;;;29.20;67.20;;;;;;4951240;29;20261;-60
2023/07/18 15:09:10;;;;;;;4.90;4.30;;;29.10;67.00;;;;;;4947650;29;20180;-61
2023/07/18 15:11:36;;;;;;;2.67;2.03;;;29.00;66.60;;;;;;4955775;29;20540;-60
2023/07/18 15:14:01;;;;;;;1.90;1.80;;;29.00;66.10;;;;;;4950531;29;20268;-61
2023/07/18 15:16:28;;;;;;;3.80;3.50;;;29.00;66.60;;;;;;4945165;29;20244;-60
2023/07/18 15:18:54;;;;;;;1.93;1.77;;;29.00;68.20;;;;;;4955564;29;20259;-61
2023/07/18 15:21:19;;;;;;;1.73;1.63;;;29.00;68.00;;;;;;4940634;29;20462;-61
2023/07/18 15:23:45;;;;;;;2.07;1.97;;;29.10;67.60;;;;;;4952644;28;20181;-63
2023/07/18 15:26:13;;;;;;;1.67;1.57;;;29.10;67.80;;;;;;4936905;29;20714;-64
2023/07/18 15:28:39;;;;;;;2.10;1.90;;;29.20;68.20;;;;;;4957272;28;20181;-64
2023/07/18 15:31:05;;;;;;;2.37;2.17;;;29.10;69.30;;;;;;4957650;28;20524;-64
2023/07/18 15:33:33;;;;;;;2.67;2.47;;;29.10;68.30;;;;;;4951768;29;20432;-64
2023/07/18 15:35:59;;;;;;;2.37;2.17;;;29.00;69.10;;;;;;4950708;29;20807;-64
2023/07/18 15:38:25;;;;;;;1.63;1.53;;;28.90;69.00;;;;;;4924482;29;20775;-64
2023/07/18 15:40:51;;;;;;;2.60;2.40;;;28.80;67.80;;;;;;4955964;28;20485;-62
2023/07/18 15:43:17;;;;;;;1.70;1.60;;;28.60;69.20;;;;;;4956387;28;20227;-63
2023/07/18 15:45:46;;;;;;;1.90;1.80;;;28.40;69.80;;;;;;4954442;29;20204;-63
2023/07/18 15:48:11;;;;;;;1.73;1.63;;;28.20;70.00;;;;;;4956470;29;20184;-62
2023/07/18 15:50:37;;;;;;;1.80;1.70;;;28.10;70.80;;;;;;4957320;29;20404;-63
2023/07/18 15:53:02;;;;;;;2.40;2.13;;;28.00;71.60;;;;;;4956375;29;20547;-63
2023/07/18 15:55:28;;;;;;;2.60;2.33;;;27.90;72.00;;;;;;4956779;28;20199;-62
2023/07/18 15:57:54;;;;;;;1.80;1.70;;;27.90;72.00;;;;;;4942678;29;20186;-62
2023/07/18 16:00:19;;;;;;;2.20;2.00;;;27.80;71.10;;;;;;4937927;29;20210;-63
2023/07/18 16:02:45;;;;;;;2.63;2.30;;;27.80;71.70;;;;;;4953180;29;20583;-62
2023/07/18 16:05:11;;;;;;;1.67;1.57;;;27.80;72.10;;;;;;4944146;28;20243;-63
2023/07/18 16:07:36;;;;;;;2.10;1.87;;;27.70;72.60;;;;;;4938287;29;20247;-62
2023/07/18 16:10:02;;;;;;;2.00;1.90;;;27.70;72.10;;;;;;4945984;29;20178;-63
2023/07/18 16:12:28;;;;;;;3.00;2.00;;;27.60;71.90;;;;;;4954823;28;20229;-62
2023/07/18 16:14:53;;;;;;;2.33;2.13;;;27.60;71.90;;;;;;4955470;29;20435;-62
2023/07/18 16:17:20;;;;;;;2.10;2.00;;;27.60;72.50;;;;;;4955652;29;20193;-62
2023/07/18 16:19:47;;;;;;;2.10;1.90;;;27.50;72.80;;;;;;4952473;28;20324;-62
2023/07/18 16:22:15;;;;;;;2.60;2.40;;;27.40;72.70;;;;;;4952786;28;20432;-63
2023/07/18 16:24:41;;;;;;;2.97;2.70;;;27.30;72.70;;;;;;4955901;29;20520;-61
2023/07/18 16:27:07;;;;;;;2.43;2.23;;;27.30;73.30;;;;;;4954862;29;20509;-62
2023/07/18 16:29:35;;;;;;;2.17;2.00;;;27.20;73.50;;;;;;4953797;28;20478;-61
2023/07/18 16:32:01;;;;;;;2.67;2.30;;;27.20;72.90;;;;;;4938407;29;20189;-61
2023/07/18 16:34:27;;;;;;;2.23;2.03;;;27.20;73.30;;;;;;4954555;29;20445;-61
2023/07/18 16:36:53;;;;;;;1.73;1.63;;;27.20;73.60;;;;;;4956242;29;20180;-61
2023/07/18 16:39:18;;;;;;;3.10;2.60;;;27.10;73.10;;;;;;4951405;29;20656;-62
2023/07/18 16:41:45;;;;;;;2.80;2.10;;;27.10;73.10;;;;;;4952985;29;20443;-60
2023/07/18 16:44:10;;;;;;;3.20;2.80;;;27.10;73.90;;;;;;4957576;28;20559;-60
2023/07/18 16:46:36;;;;;;;1.80;1.47;;;27.10;74.50;;;;;;4953292;28;20403;-61
2023/07/18 16:49:03;;;;;;;4.67;3.97;;;27.10;74.10;;;;;;4937102;29;20163;-60
2023/07/18 16:51:29;;;;;;;2.73;2.53;;;27.00;74.60;;;;;;4939976;29;20174;-60
2023/07/18 16:53:55;;;;;;;2.73;2.47;;;26.90;74.60;;;;;;4943397;29;20404;-63